Time;durP1;ratioP1;P1;durP2;ratioP2;P2;SDS_P1;SDS_P2;PMS_P1;PMS_P2;Temp;Humidity;BMP_temperature;BMP_pressure;BME280_temperature;BME280_humidity;BME280_pressure;Samples;Min_cycle;Max_cycle;Signal;HPM_P1;HPM_P2
2021/09/13 00:00:37;;;;;;;8.88;2.78;;;14.20;99.90;;;;;;5022754;28;20032;-48
2021/09/13 00:03:03;;;;;;;3.03;2.60;;;14.20;99.90;;;;;;5027000;28;20044;-53
2021/09/13 00:05:28;;;;;;;8.13;2.90;;;14.20;99.90;;;;;;5024882;28;20377;-48
2021/09/13 00:07:55;;;;;;;3.20;2.53;;;14.10;99.90;;;;;;5018697;28;20026;-50
2021/09/13 00:10:20;;;;;;;3.92;2.45;;;14.20;99.90;;;;;;5017013;28;20049;-49
2021/09/13 00:12:46;;;;;;;4.53;2.42;;;14.10;99.90;;;;;;5026379;28;20464;-51
2021/09/13 00:15:12;;;;;;;4.60;2.30;;;14.10;99.90;;;;;;5021656;28;20084;-53
2021/09/13 00:17:38;;;;;;;4.00;2.97;;;14.10;99.90;;;;;;5021894;28;20053;-51
2021/09/13 00:20:04;;;;;;;6.07;2.60;;;14.10;99.90;;;;;;5022811;28;20488;-52
2021/09/13 00:22:30;;;;;;;4.43;2.45;;;14.00;99.90;;;;;;5022472;28;20037;-48
2021/09/13 00:24:55;;;;;;;5.28;2.35;;;14.00;99.90;;;;;;5005867;28;20022;-52
2021/09/13 00:27:21;;;;;;;2.78;2.38;;;14.00;99.90;;;;;;5023267;28;20392;-49
2021/09/13 00:29:46;;;;;;;4.40;2.45;;;14.00;99.90;;;;;;5027322;28;20369;-55
2021/09/13 00:32:12;;;;;;;5.00;2.38;;;13.90;99.90;;;;;;5022952;28;20396;-50
2021/09/13 00:34:38;;;;;;;3.63;2.50;;;13.90;99.90;;;;;;5003659;28;20053;-53
2021/09/13 00:37:04;;;;;;;7.18;3.00;;;13.90;99.90;;;;;;5022550;28;20046;-51
2021/09/13 00:39:30;;;;;;;5.97;3.00;;;13.90;99.90;;;;;;5022450;28;20025;-53
2021/09/13 00:41:55;;;;;;;3.40;2.38;;;13.90;99.90;;;;;;5024458;28;20022;-48
2021/09/13 00:44:21;;;;;;;6.60;2.42;;;13.90;99.90;;;;;;5022993;28;20348;-50
2021/09/13 00:46:46;;;;;;;4.05;2.83;;;13.90;99.90;;;;;;5026686;28;20029;-49
2021/09/13 00:49:15;;;;;;;6.03;2.92;;;13.90;99.90;;;;;;5022907;28;20101;-55
2021/09/13 00:51:41;;;;;;;4.47;2.80;;;13.90;99.90;;;;;;5021386;28;20140;-55
2021/09/13 00:54:18;;;;;;;4.82;2.70;;;13.90;99.90;;;;;;5022736;28;20485;-53
2021/09/13 00:56:44;;;;;;;2.45;2.17;;;13.90;99.90;;;;;;5013601;28;20030;-49
2021/09/13 00:59:11;;;;;;;10.25;2.92;;;14.00;99.90;;;;;;5022129;28;20021;-47
2021/09/13 01:01:37;;;;;;;5.18;2.63;;;13.90;99.90;;;;;;5020865;28;20034;-53
2021/09/13 01:04:03;;;;;;;4.70;3.10;;;13.90;99.90;;;;;;5023695;28;20377;-51
2021/09/13 01:06:28;;;;;;;6.15;3.17;;;14.00;99.90;;;;;;5023339;28;20026;-49
2021/09/13 01:08:54;;;;;;;4.57;3.25;;;14.00;99.90;;;;;;5020940;28;20030;-50
2021/09/13 01:11:20;;;;;;;5.18;3.03;;;14.00;99.90;;;;;;5015301;28;20567;-49
2021/09/13 01:13:46;;;;;;;4.78;2.60;;;14.00;99.90;;;;;;5048747;22;20103;-51
2021/09/13 01:16:12;;;;;;;4.32;2.75;;;14.00;99.90;;;;;;5059311;28;20028;-51
2021/09/13 01:18:38;;;;;;;4.82;2.95;;;14.00;99.90;;;;;;5060063;28;20052;-51
2021/09/13 01:21:04;;;;;;;6.60;3.63;;;14.00;99.90;;;;;;5046644;28;20074;-51
2021/09/13 01:23:33;;;;;;;7.00;3.15;;;14.10;99.90;;;;;;5053690;28;20471;-52
2021/09/13 01:25:59;;;;;;;5.60;3.40;;;14.10;99.90;;;;;;5061074;28;20459;-50
2021/09/13 01:28:25;;;;;;;4.55;3.13;;;14.10;99.90;;;;;;5072742;28;20031;-51
2021/09/13 01:30:51;;;;;;;5.93;3.55;;;14.10;99.90;;;;;;5072563;28;20020;-51
2021/09/13 01:33:17;;;;;;;4.03;3.10;;;14.10;99.90;;;;;;5072215;28;20040;-53
2021/09/13 01:35:43;;;;;;;4.63;3.33;;;14.10;99.90;;;;;;5072271;28;20486;-51
2021/09/13 01:38:08;;;;;;;8.52;3.72;;;14.20;99.90;;;;;;5054114;28;20055;-50
2021/09/13 01:40:34;;;;;;;5.45;3.40;;;14.20;99.90;;;;;;5072378;28;20035;-51
2021/09/13 01:43:02;;;;;;;5.28;3.30;;;14.20;99.90;;;;;;5072177;28;20107;-50
2021/09/13 01:45:27;;;;;;;6.72;3.45;;;14.20;99.90;;;;;;5071897;28;20047;-50
2021/09/13 01:47:53;;;;;;;4.05;3.47;;;14.20;99.90;;;;;;5072651;28;20025;-50
2021/09/13 01:50:19;;;;;;;5.95;3.90;;;14.20;99.90;;;;;;5072365;28;20397;-51
2021/09/13 01:52:45;;;;;;;5.97;3.53;;;14.30;99.90;;;;;;5072152;28;20559;-52
2021/09/13 01:55:11;;;;;;;7.13;3.30;;;14.30;99.90;;;;;;5071861;28;20096;-50
2021/09/13 01:57:37;;;;;;;4.38;3.60;;;14.30;99.90;;;;;;5072179;28;20016;-50
2021/09/13 02:00:05;;;;;;;7.50;3.53;;;14.40;99.90;;;;;;5072027;28;20112;-52
2021/09/13 02:02:31;;;;;;;4.18;3.33;;;14.40;99.90;;;;;;5071763;28;20040;-54
2021/09/13 02:04:56;;;;;;;5.65;3.22;;;14.40;99.90;;;;;;5071397;28;20059;-52
2021/09/13 02:07:22;;;;;;;5.40;3.70;;;14.40;99.90;;;;;;5071776;28;20025;-53
2021/09/13 02:09:52;;;;;;;5.38;3.78;;;14.40;99.90;;;;;;5053729;28;20115;-53
2021/09/13 02:12:18;;;;;;;4.57;3.55;;;14.40;99.90;;;;;;5071738;28;20020;-52
2021/09/13 02:14:43;;;;;;;7.38;3.58;;;14.40;99.90;;;;;;5071476;28;20025;-54
2021/09/13 02:17:09;;;;;;;6.72;4.22;;;14.40;99.90;;;;;;5071721;28;20399;-51
2021/09/13 02:19:34;;;;;;;3.63;3.22;;;14.40;99.90;;;;;;5071794;28;20398;-52
2021/09/13 02:22:00;;;;;;;3.95;3.10;;;14.50;99.90;;;;;;5071864;28;20036;-52
2021/09/13 02:24:25;;;;;;;3.47;3.00;;;14.50;99.90;;;;;;5071331;28;20025;-51
2021/09/13 02:26:51;;;;;;;5.05;3.70;;;14.50;99.90;;;;;;5071876;28;20028;-52
2021/09/13 02:29:16;;;;;;;5.20;3.90;;;14.50;99.90;;;;;;5071624;28;20020;-51
2021/09/13 02:31:42;;;;;;;4.28;3.50;;;14.50;99.90;;;;;;5071738;28;20032;-53
2021/09/13 02:34:07;;;;;;;6.32;3.60;;;14.50;99.90;;;;;;5071344;28;20025;-50
2021/09/13 02:36:33;;;;;;;5.95;4.03;;;14.60;99.90;;;;;;5070560;28;20398;-49
2021/09/13 02:38:59;;;;;;;7.40;3.58;;;14.60;99.90;;;;;;5071057;28;20048;-51
2021/09/13 02:41:24;;;;;;;6.03;3.78;;;14.60;99.90;;;;;;5071295;28;20090;-50
2021/09/13 02:43:50;;;;;;;4.25;3.00;;;14.60;99.90;;;;;;5071507;28;20029;-51
2021/09/13 02:46:18;;;;;;;6.35;3.88;;;14.60;99.90;;;;;;5071158;28;20032;-50
2021/09/13 02:48:44;;;;;;;7.40;3.60;;;14.60;99.90;;;;;;5071341;28;20012;-53
2021/09/13 02:51:10;;;;;;;7.28;3.75;;;14.60;99.90;;;;;;5071373;28;20103;-51
2021/09/13 02:53:35;;;;;;;7.95;4.43;;;14.60;99.90;;;;;;5052831;28;20031;-51
2021/09/13 02:56:01;;;;;;;8.05;4.60;;;14.60;99.90;;;;;;5071122;28;20020;-50
2021/09/13 02:58:27;;;;;;;7.55;4.53;;;14.60;99.90;;;;;;5071066;28;20105;-52
2021/09/13 03:00:52;;;;;;;9.30;4.80;;;14.60;99.90;;;;;;5071229;28;20021;-50
2021/09/13 03:03:18;;;;;;;7.32;5.25;;;14.60;99.90;;;;;;5071046;28;20020;-52
2021/09/13 03:05:43;;;;;;;7.63;4.65;;;14.60;99.90;;;;;;5070593;28;20035;-50
2021/09/13 03:08:09;;;;;;;8.55;5.45;;;14.70;99.90;;;;;;5070740;28;20039;-50
2021/09/13 03:10:35;;;;;;;11.90;5.40;;;14.70;99.90;;;;;;5070527;28;20021;-51
2021/09/13 03:13:00;;;;;;;11.52;6.38;;;14.70;99.90;;;;;;5070681;28;20031;-52
2021/09/13 03:15:26;;;;;;;7.18;5.63;;;14.70;99.90;;;;;;5070286;28;20430;-52
2021/09/13 03:17:51;;;;;;;11.38;5.93;;;14.70;99.90;;;;;;5070965;28;20143;-51
2021/09/13 03:20:17;;;;;;;7.10;5.57;;;14.70;99.90;;;;;;5070831;28;20033;-50
2021/09/13 03:22:43;;;;;;;10.07;5.68;;;14.70;99.90;;;;;;5070696;28;20024;-50
2021/09/13 03:25:09;;;;;;;6.72;5.10;;;14.70;99.90;;;;;;5070364;28;20032;-52
2021/09/13 03:27:35;;;;;;;6.32;4.93;;;14.70;99.90;;;;;;5070458;28;20020;-51
2021/09/13 03:30:00;;;;;;;8.38;5.93;;;14.70;99.90;;;;;;5052651;28;20028;-51
2021/09/13 03:32:26;;;;;;;8.32;6.05;;;14.70;99.90;;;;;;5070385;28;20032;-52
2021/09/13 03:34:52;;;;;;;10.70;6.78;;;14.80;99.90;;;;;;5069962;28;20020;-51
2021/09/13 03:37:17;;;;;;;7.00;5.30;;;14.70;99.90;;;;;;5070349;28;20090;-51
2021/09/13 03:39:43;;;;;;;9.68;5.18;;;14.70;99.90;;;;;;5052138;28;20368;-50
2021/09/13 03:42:09;;;;;;;9.95;5.80;;;14.70;99.90;;;;;;5070199;28;20715;-50
2021/09/13 03:44:34;;;;;;;8.80;5.65;;;14.70;99.90;;;;;;5069774;28;20039;-51
2021/09/13 03:47:00;;;;;;;7.28;4.57;;;14.80;99.90;;;;;;5070169;28;20490;-55
2021/09/13 03:49:25;;;;;;;10.60;5.93;;;14.70;99.90;;;;;;5070148;28;20415;-53
2021/09/13 03:51:52;;;;;;;8.70;5.57;;;14.70;99.90;;;;;;5070174;28;20020;-51
2021/09/13 03:54:18;;;;;;;11.35;5.43;;;14.70;99.90;;;;;;5070041;28;20095;-52
2021/09/13 03:56:43;;;;;;;6.30;4.85;;;14.80;99.90;;;;;;5069361;28;20527;-52
2021/09/13 03:59:09;;;;;;;7.53;4.45;;;14.70;99.90;;;;;;5069632;28;20502;-51
2021/09/13 04:01:34;;;;;;;8.90;4.63;;;14.80;99.90;;;;;;5051919;28;20059;-51
2021/09/13 04:04:02;;;;;;;5.93;3.30;;;14.70;99.90;;;;;;5069420;28;20047;-50
2021/09/13 04:11:56;;;;;;;6.95;2.60;;;14.70;99.90;;;;;;5069517;28;20028;-53
2021/09/13 04:14:24;;;;;;;5.57;2.42;;;14.60;99.90;;;;;;5052815;28;20032;-52
2021/09/13 04:16:50;;;;;;;7.50;2.10;;;14.60;99.90;;;;;;5069097;28;20077;-52
2021/09/13 04:19:16;;;;;;;3.65;1.88;;;14.60;99.90;;;;;;5068396;28;20150;-52
2021/09/13 04:21:45;;;;;;;4.68;1.73;;;14.60;99.90;;;;;;5069711;28;20078;-53
2021/09/13 04:24:11;;;;;;;5.43;2.03;;;14.60;99.90;;;;;;5068633;28;20444;-54
2021/09/13 04:26:36;;;;;;;5.35;2.35;;;14.60;99.90;;;;;;5069163;28;20077;-50
2021/09/13 04:29:02;;;;;;;6.07;2.33;;;14.60;99.90;;;;;;5068954;28;20410;-54
2021/09/13 04:31:28;;;;;;;5.10;2.17;;;14.60;99.90;;;;;;5069338;28;20077;-50
2021/09/13 04:33:54;;;;;;;5.18;2.28;;;14.60;99.90;;;;;;5069294;28;20605;-51
2021/09/13 04:36:20;;;;;;;3.95;1.90;;;14.60;99.90;;;;;;5068726;28;20028;-52
2021/09/13 04:38:45;;;;;;;6.28;1.83;;;14.60;99.90;;;;;;5069201;28;20393;-52
2021/09/13 04:41:11;;;;;;;3.75;1.63;;;14.60;99.90;;;;;;5051014;28;20070;-52
2021/09/13 04:43:37;;;;;;;5.18;1.52;;;14.60;99.90;;;;;;5068997;28;20052;-52
2021/09/13 04:46:03;;;;;;;3.50;1.40;;;14.60;99.90;;;;;;5069272;28;20354;-53
2021/09/13 04:48:29;;;;;;;4.90;1.90;;;14.60;99.90;;;;;;5069438;28;20091;-51
2021/09/13 04:50:54;;;;;;;5.65;2.55;;;14.60;99.90;;;;;;5069812;28;20104;-51
2021/09/13 04:53:21;;;;;;;3.60;1.92;;;14.60;99.90;;;;;;5069353;28;20104;-52
2021/09/13 04:55:47;;;;;;;6.13;2.00;;;14.60;99.90;;;;;;5069103;28;20038;-52
2021/09/13 04:58:13;;;;;;;2.42;2.13;;;14.60;99.90;;;;;;5051114;28;20082;-53
2021/09/13 05:00:40;;;;;;;4.95;1.73;;;14.60;99.90;;;;;;5070413;28;20016;-51
2021/09/13 05:03:06;;;;;;;4.45;2.75;;;14.60;99.90;;;;;;5073311;28;20074;-51
2021/09/13 05:05:31;;;;;;;3.83;2.47;;;14.60;99.90;;;;;;5072702;28;20024;-50
2021/09/13 05:07:57;;;;;;;5.85;3.28;;;14.60;99.90;;;;;;5073275;28;20036;-50
2021/09/13 05:10:22;;;;;;;7.57;3.80;;;14.60;99.90;;;;;;5055396;28;20061;-51
2021/09/13 05:12:48;;;;;;;9.45;5.03;;;14.70;99.90;;;;;;5055232;28;20078;-48
2021/09/13 05:15:14;;;;;;;4.78;3.40;;;14.70;99.90;;;;;;5072728;28;20039;-51
2021/09/13 05:17:39;;;;;;;7.53;3.60;;;14.70;99.90;;;;;;5055268;28;20025;-51
2021/09/13 05:20:06;;;;;;;10.20;4.05;;;14.70;99.90;;;;;;5055158;28;20394;-54
2021/09/13 05:22:31;;;;;;;7.82;4.38;;;14.70;99.90;;;;;;5073121;28;20390;-51
2021/09/13 05:24:57;;;;;;;9.75;4.15;;;14.70;99.90;;;;;;5072287;28;20034;-50
2021/09/13 05:27:22;;;;;;;5.10;3.28;;;14.70;99.90;;;;;;5072798;28;20033;-51
2021/09/13 05:29:48;;;;;;;7.57;3.92;;;14.70;99.90;;;;;;5072754;28;20025;-52
2021/09/13 05:32:14;;;;;;;8.30;3.83;;;14.70;99.90;;;;;;5072408;28;20056;-50
2021/09/13 05:34:40;;;;;;;6.95;3.50;;;14.80;99.90;;;;;;5072243;28;20046;-50
2021/09/13 05:37:05;;;;;;;6.30;3.80;;;14.70;99.90;;;;;;5072389;28;20398;-50
2021/09/13 05:39:31;;;;;;;4.28;2.60;;;14.80;99.90;;;;;;5072444;28;20402;-50
2021/09/13 05:41:57;;;;;;;8.50;2.83;;;14.80;99.90;;;;;;5072202;28;20445;-50
2021/09/13 05:44:22;;;;;;;7.07;2.70;;;14.80;99.90;;;;;;5072218;28;20028;-55
2021/09/13 05:46:48;;;;;;;4.95;2.70;;;14.80;99.90;;;;;;5072700;28;20031;-50
2021/09/13 05:49:14;;;;;;;8.55;3.03;;;14.80;99.90;;;;;;5072523;28;20028;-53
2021/09/13 05:51:45;;;;;;;6.57;2.20;;;14.80;99.90;;;;;;5072083;28;20025;-49
2021/09/13 05:54:13;;;;;;;3.20;2.17;;;14.80;99.90;;;;;;5072258;28;20077;-53
2021/09/13 05:56:41;;;;;;;6.25;2.45;;;14.80;99.90;;;;;;5071762;28;20035;-50
2021/09/13 05:59:07;;;;;;;4.80;2.10;;;14.80;99.90;;;;;;5072217;28;20031;-53
2021/09/13 06:01:33;;;;;;;4.10;2.30;;;14.80;99.90;;;;;;5071901;28;20029;-52
2021/09/13 06:03:58;;;;;;;6.13;2.83;;;14.90;99.90;;;;;;5071488;28;20029;-52
2021/09/13 06:06:24;;;;;;;7.63;2.28;;;14.90;99.90;;;;;;5071282;28;20028;-48
2021/09/13 06:08:50;;;;;;;7.80;2.72;;;14.90;99.90;;;;;;5071410;28;20036;-49
2021/09/13 06:11:15;;;;;;;3.75;1.75;;;14.90;99.90;;;;;;5071613;28;21393;-51
2021/09/13 06:13:41;;;;;;;5.20;3.05;;;14.90;99.90;;;;;;5070885;28;20028;-50
2021/09/13 06:16:08;;;;;;;9.30;2.58;;;14.90;99.90;;;;;;5071454;28;20386;-50
2021/09/13 06:18:35;;;;;;;7.88;3.13;;;14.90;99.90;;;;;;5071628;28;20554;-50
2021/09/13 06:21:00;;;;;;;6.55;2.50;;;14.90;99.90;;;;;;5071408;28;20028;-52
2021/09/13 06:23:26;;;;;;;5.45;2.50;;;14.90;99.90;;;;;;5071622;28;20104;-49
2021/09/13 06:25:52;;;;;;;4.70;2.40;;;14.90;99.90;;;;;;5070500;28;20024;-53
2021/09/13 06:28:17;;;;;;;12.20;3.03;;;15.00;99.90;;;;;;5071214;28;20051;-51
2021/09/13 06:30:43;;;;;;;8.80;3.20;;;15.00;99.90;;;;;;5071064;28;20052;-50
2021/09/13 06:33:09;;;;;;;10.65;2.90;;;15.00;99.90;;;;;;5070884;28;20138;-51
2021/09/13 06:35:34;;;;;;;4.70;2.05;;;15.10;99.90;;;;;;5070746;28;20138;-50
2021/09/13 06:38:00;;;;;;;5.57;2.05;;;15.10;99.90;;;;;;5070899;28;20063;-50
2021/09/13 06:40:26;;;;;;;4.25;2.42;;;15.10;99.90;;;;;;5070877;28;20032;-54
2021/09/13 06:42:51;;;;;;;5.65;2.40;;;15.10;99.90;;;;;;5070797;28;20364;-50
2021/09/13 06:45:20;;;;;;;4.68;2.35;;;15.10;99.90;;;;;;5070597;28;20059;-51
2021/09/13 06:47:46;;;;;;;6.25;2.58;;;15.20;99.90;;;;;;5071215;28;20078;-50
2021/09/13 06:50:28;;;;;;;4.13;1.90;;;15.20;99.90;;;;;;5070920;28;20020;-51
2021/09/13 06:52:56;;;;;;;2.97;1.55;;;15.20;99.90;;;;;;5070714;28;20518;-50
2021/09/13 06:55:22;;;;;;;4.38;1.95;;;15.20;99.90;;;;;;5050997;28;20047;-52
2021/09/13 06:57:49;;;;;;;3.53;1.60;;;15.20;99.90;;;;;;5070811;28;20017;-52
2021/09/13 07:00:16;;;;;;;5.15;1.65;;;15.30;99.90;;;;;;5070713;28;20017;-50
2021/09/13 07:02:44;;;;;;;6.68;1.92;;;15.30;99.90;;;;;;5067275;28;20497;-49
2021/09/13 07:05:10;;;;;;;3.20;1.30;;;15.30;99.90;;;;;;5069907;28;20058;-50
2021/09/13 07:07:36;;;;;;;5.07;2.17;;;15.30;99.90;;;;;;5070429;28;20077;-51
2021/09/13 07:10:04;;;;;;;5.28;1.67;;;15.30;99.90;;;;;;5070069;28;20032;-53
2021/09/13 07:12:30;;;;;;;4.93;2.05;;;15.30;99.90;;;;;;5070429;28;20024;-51
2021/09/13 07:14:55;;;;;;;4.90;1.63;;;15.30;99.90;;;;;;5077208;22;20499;-49
2021/09/13 07:17:21;;;;;;;5.30;1.65;;;15.30;99.90;;;;;;5046504;28;20028;-54
2021/09/13 07:19:47;;;;;;;8.05;2.60;;;15.40;99.90;;;;;;5050593;28;20032;-47
2021/09/13 07:22:12;;;;;;;9.15;1.83;;;15.30;99.90;;;;;;5050175;28;20032;-48
2021/09/13 07:24:41;;;;;;;6.60;1.88;;;15.30;99.90;;;;;;5048436;28;20039;-52
2021/09/13 07:27:07;;;;;;;5.22;1.70;;;15.30;99.90;;;;;;5049835;28;20029;-48
2021/09/13 07:29:32;;;;;;;8.07;2.10;;;15.20;99.90;;;;;;5050139;28;20044;-49
2021/09/13 07:32:00;;;;;;;10.68;2.00;;;15.10;99.90;;;;;;5049691;28;20029;-49
2021/09/13 07:34:26;;;;;;;7.97;2.28;;;15.10;99.90;;;;;;5049238;28;20471;-52
2021/09/13 07:36:52;;;;;;;5.80;2.38;;;15.20;99.90;;;;;;5049938;28;20028;-49
2021/09/13 07:39:18;;;;;;;10.93;2.65;;;15.20;99.90;;;;;;5049934;28;20387;-49
2021/09/13 07:41:43;;;;;;;6.63;1.83;;;15.20;99.90;;;;;;5049579;28;20683;-49
2021/09/13 07:44:09;;;;;;;5.65;2.00;;;15.30;99.90;;;;;;5049736;28;20029;-48
2021/09/13 07:46:35;;;;;;;5.10;2.10;;;15.30;99.90;;;;;;5049354;28;20099;-52
2021/09/13 07:49:01;;;;;;;7.10;1.85;;;15.30;99.90;;;;;;5049649;28;20128;-47
2021/09/13 07:51:28;;;;;;;11.93;2.50;;;15.40;99.90;;;;;;5031927;28;20043;-47
2021/09/13 07:53:54;;;;;;;5.65;2.00;;;15.50;99.90;;;;;;5049651;28;20013;-47
2021/09/13 07:56:19;;;;;;;3.67;1.70;;;15.50;99.90;;;;;;5049123;28;20483;-49
2021/09/13 07:58:45;;;;;;;7.10;2.00;;;15.60;99.90;;;;;;5031340;28;20060;-53
2021/09/13 08:01:11;;;;;;;7.35;1.77;;;15.60;99.90;;;;;;5049640;28;20021;-51
2021/09/13 08:03:36;;;;;;;6.72;1.77;;;15.60;99.90;;;;;;5049293;28;20094;-48
2021/09/13 08:06:02;;;;;;;5.07;2.03;;;15.60;99.90;;;;;;5049067;28;20471;-48
2021/09/13 08:08:27;;;;;;;8.55;1.98;;;15.60;99.90;;;;;;5049131;28;20033;-47
2021/09/13 08:10:53;;;;;;;7.38;2.08;;;15.70;99.90;;;;;;5049272;28;20025;-50
2021/09/13 08:13:18;;;;;;;7.93;2.17;;;15.70;99.90;;;;;;5049236;28;20088;-47
2021/09/13 08:15:44;;;;;;;6.50;1.90;;;15.70;99.90;;;;;;5048379;28;20028;-49
2021/09/13 08:18:10;;;;;;;4.13;2.03;;;15.70;99.90;;;;;;5049110;28;20483;-50
2021/09/13 08:20:35;;;;;;;10.65;2.38;;;15.80;99.90;;;;;;5049572;28;20029;-50
2021/09/13 08:23:01;;;;;;;5.93;2.10;;;15.90;99.90;;;;;;5049883;28;20422;-46
2021/09/13 08:25:26;;;;;;;7.93;2.45;;;16.00;99.90;;;;;;5049149;28;20521;-50
2021/09/13 08:27:52;;;;;;;6.63;2.28;;;16.00;99.90;;;;;;5049676;28;20025;-50
2021/09/13 08:30:18;;;;;;;7.00;1.88;;;16.00;99.90;;;;;;5049286;28;20079;-50
2021/09/13 08:32:43;;;;;;;5.63;1.85;;;16.00;99.90;;;;;;5049247;28;20772;-47
2021/09/13 08:35:09;;;;;;;4.90;1.42;;;16.00;99.90;;;;;;5049219;28;20029;-47
2021/09/13 08:37:35;;;;;;;6.28;1.50;;;16.00;99.90;;;;;;5053604;28;20025;-47
2021/09/13 08:40:00;;;;;;;3.92;1.52;;;16.00;99.90;;;;;;5053300;28;20132;-49
2021/09/13 08:42:27;;;;;;;4.53;2.25;;;16.10;99.90;;;;;;5053759;28;20025;-47
2021/09/13 08:44:56;;;;;;;2.67;1.25;;;16.20;99.90;;;;;;5052920;28;20071;-47
2021/09/13 08:47:32;;;;;;;8.30;1.73;;;16.20;99.90;;;;;;5053454;28;20035;-46
2021/09/13 08:50:07;;;;;;;;;;;16.30;99.90;;;;;;5053896;28;20028;-50
2021/09/13 08:52:34;;;;;;;5.20;1.33;;;16.30;99.90;;;;;;5035825;28;20373;-50
2021/09/13 08:55:00;;;;;;;3.50;1.50;;;16.40;99.90;;;;;;5052919;28;20025;-49
2021/09/13 08:57:26;;;;;;;7.13;1.63;;;16.50;99.90;;;;;;5035230;28;20560;-48
2021/09/13 08:59:53;;;;;;;6.40;1.33;;;16.60;99.90;;;;;;5052999;28;20383;-49
2021/09/13 09:02:20;;;;;;;7.25;1.83;;;16.60;99.90;;;;;;5053226;28;20060;-47
2021/09/13 09:04:46;;;;;;;4.72;1.55;;;16.70;99.90;;;;;;5052837;28;20025;-50
2021/09/13 09:07:15;;;;;;;5.90;1.60;;;16.80;99.90;;;;;;5052797;28;20078;-48
2021/09/13 09:09:41;;;;;;;9.65;2.13;;;16.80;99.90;;;;;;5035158;28;20029;-53
2021/09/13 09:12:13;;;;;;;5.25;1.73;;;16.90;99.90;;;;;;5052812;28;20071;-50
2021/09/13 09:14:44;;;;;;;6.60;1.17;;;17.00;99.90;;;;;;5052522;28;20021;-49
2021/09/13 09:17:19;;;;;;;6.10;1.83;;;17.00;99.90;;;;;;5052337;28;20070;-53
2021/09/13 09:19:45;;;;;;;7.67;1.83;;;17.00;99.90;;;;;;5053099;28;20079;-49
2021/09/13 09:22:23;;;;;;;6.47;1.42;;;17.10;99.90;;;;;;5035217;28;20661;-46
2021/09/13 09:24:50;;;;;;;3.50;1.38;;;17.20;99.90;;;;;;5052223;28;20025;-49
2021/09/13 09:27:16;;;;;;;6.68;1.58;;;17.20;99.90;;;;;;5052604;28;20040;-52
2021/09/13 09:29:42;;;;;;;6.82;2.45;;;17.20;99.90;;;;;;5052804;28;20032;-47
2021/09/13 09:32:07;;;;;;;6.07;1.52;;;17.30;99.90;;;;;;5052550;28;20025;-50
2021/09/13 09:34:35;;;;;;;4.07;1.25;;;17.20;99.90;;;;;;5026493;28;20052;-49
2021/09/13 09:37:07;;;;;;;2.67;1.80;;;17.20;99.90;;;;;;5052371;28;20032;-51
2021/09/13 09:39:54;;;;;;;4.63;1.35;;;17.10;99.90;;;;;;5034429;28;20028;-48
2021/09/13 09:42:35;;;;;;;4.63;1.70;;;17.10;99.90;;;;;;5052203;28;20074;-49
2021/09/13 09:45:22;;;;;;;4.78;1.40;;;17.00;99.90;;;;;;5051889;28;20021;-50
2021/09/13 09:48:04;;;;;;;10.02;1.45;;;17.00;99.90;;;;;;5051383;28;20056;-47
2021/09/13 09:50:30;;;;;;;2.58;1.30;;;16.90;99.90;;;;;;5052775;28;20025;-48
2021/09/13 09:53:14;;;;;;;3.67;1.20;;;16.80;99.90;;;;;;5052302;28;20503;-52
2021/09/13 09:55:39;;;;;;;5.07;1.23;;;16.50;99.90;;;;;;5040667;28;20052;-50
2021/09/13 09:58:15;;;;;;;5.10;1.65;;;16.40;99.90;;;;;;5052104;28;20060;-50
2021/09/13 10:00:43;;;;;;;;;;;16.30;99.90;;;;;;5041838;28;20080;-54
2021/09/13 10:03:09;;;;;;;5.53;2.30;;;16.30;99.90;;;;;;5052054;28;20386;-52
2021/09/13 10:05:35;;;;;;;6.38;2.10;;;16.20;99.90;;;;;;5051570;28;20071;-47
2021/09/13 10:08:01;;;;;;;7.95;1.77;;;16.20;99.90;;;;;;5051843;28;20029;-49
2021/09/13 10:10:29;;;;;;;5.60;2.08;;;16.30;99.90;;;;;;5051665;28;20048;-50
2021/09/13 10:12:59;;;;;;;7.60;1.70;;;16.40;99.90;;;;;;5051558;28;20108;-50
2021/09/13 10:15:26;;;;;;;3.33;1.58;;;16.40;99.90;;;;;;5043479;28;20673;-49
2021/09/13 10:17:52;;;;;;;3.22;1.50;;;16.50;99.90;;;;;;5051742;28;20407;-50
2021/09/13 10:20:18;;;;;;;2.78;1.15;;;16.50;99.90;;;;;;5051713;28;20024;-51
2021/09/13 10:22:48;;;;;;;3.65;1.10;;;16.60;99.90;;;;;;5051987;28;20029;-53
2021/09/13 10:25:14;;;;;;;4.45;2.05;;;16.70;99.90;;;;;;5051305;28;20119;-55
2021/09/13 10:27:47;;;;;;;5.53;1.85;;;16.80;99.90;;;;;;5051432;28;20032;-50
2021/09/13 10:30:16;;;;;;;4.40;1.35;;;17.00;99.90;;;;;;5051528;28;20028;-50
2021/09/13 10:32:44;;;;;;;2.10;1.08;;;17.10;99.90;;;;;;5051352;28;20013;-54
2021/09/13 10:35:10;;;;;;;2.95;0.90;;;17.30;99.90;;;;;;5051028;28;20398;-48
2021/09/13 10:37:52;;;;;;;3.83;1.08;;;17.40;99.90;;;;;;5033230;28;20028;-53
2021/09/13 10:40:25;;;;;;;3.88;1.23;;;17.40;99.90;;;;;;5050492;28;20075;-49
2021/09/13 10:42:56;;;;;;;3.67;1.45;;;17.50;99.90;;;;;;5051188;28;20060;-48
2021/09/13 10:45:28;;;;;;;4.35;1.20;;;17.60;99.90;;;;;;5034679;28;20114;-52
2021/09/13 10:47:54;;;;;;;2.72;1.25;;;17.70;99.90;;;;;;5051359;28;20029;-51
2021/09/13 10:50:22;;;;;;;7.78;1.30;;;17.80;99.90;;;;;;5051239;28;20021;-52
2021/09/13 10:52:58;;;;;;;3.15;1.20;;;17.80;99.90;;;;;;5051342;28;20021;-50
2021/09/13 10:55:25;;;;;;;;;;;17.80;99.90;;;;;;5032613;28;20021;-51
2021/09/13 10:58:12;;;;;;;4.43;1.45;;;17.80;99.90;;;;;;5050417;28;19912;-52
2021/09/13 11:00:41;;;;;;;3.95;1.20;;;17.90;99.90;;;;;;5039250;28;20148;-51
2021/09/13 11:03:33;;;;;;;4.05;1.40;;;17.90;99.90;;;;;;5032911;28;20029;-52
2021/09/13 11:06:10;;;;;;;4.10;1.23;;;17.90;99.90;;;;;;5044362;28;20025;-52
2021/09/13 11:08:42;;;;;;;1.80;1.02;;;17.90;99.90;;;;;;5050171;28;20510;-50
2021/09/13 11:11:09;;;;;;;5.75;1.52;;;17.90;99.90;;;;;;5050745;28;20025;-50
2021/09/13 11:13:35;;;;;;;4.10;1.60;;;17.80;99.90;;;;;;5032670;28;20390;-53
2021/09/13 11:16:00;;;;;;;2.03;1.15;;;17.80;99.90;;;;;;5032302;28;20542;-49
2021/09/13 11:18:35;;;;;;;2.85;1.58;;;17.80;99.90;;;;;;5050540;28;20048;-48
2021/09/13 11:21:23;;;;;;;3.15;1.40;;;17.80;99.90;;;;;;5045432;28;20029;-47
2021/09/13 11:24:01;;;;;;;3.10;1.27;;;17.80;99.90;;;;;;5050054;28;20063;-51
2021/09/13 11:26:51;;;;;;;5.13;0.95;;;17.80;99.90;;;;;;5035473;28;20088;-48
2021/09/13 11:29:27;;;;;;;6.30;1.40;;;17.80;99.90;;;;;;5050507;28;20360;-51
2021/09/13 11:31:58;;;;;;;3.28;1.55;;;17.80;99.90;;;;;;5050458;28;20025;-51
2021/09/13 11:34:36;;;;;;;5.32;1.40;;;17.90;99.90;;;;;;5047278;28;20052;-48
2021/09/13 11:37:14;;;;;;;5.30;1.48;;;17.90;99.90;;;;;;5050174;28;20542;-52
2021/09/13 11:39:47;;;;;;;2.83;1.60;;;17.90;99.90;;;;;;5050246;28;20502;-53
2021/09/13 11:42:17;;;;;;;6.50;2.28;;;18.00;99.90;;;;;;5050250;28;20029;-54
2021/09/13 11:45:07;;;;;;;5.80;1.08;;;18.00;99.90;;;;;;5031856;28;20212;-58
2021/09/13 11:47:34;;;;;;;2.33;1.10;;;18.00;99.90;;;;;;5036987;28;20028;-55
2021/09/13 11:50:03;;;;;;;2.83;1.60;;;17.90;99.90;;;;;;5049954;28;20021;-54
2021/09/13 11:52:31;;;;;;;2.70;1.20;;;17.90;99.90;;;;;;5050130;28;20069;-54
2021/09/13 11:55:04;;;;;;;3.22;1.17;;;18.00;99.90;;;;;;5049554;28;20111;-50
2021/09/13 11:57:36;;;;;;;6.22;1.27;;;18.00;99.90;;;;;;5050081;28;20057;-49
2021/09/13 12:00:09;;;;;;;2.28;0.90;;;17.90;99.90;;;;;;5049672;28;20053;-52
2021/09/13 12:02:36;;;;;;;2.72;1.33;;;17.90;99.90;;;;;;5050141;28;20024;-52
2021/09/13 12:05:11;;;;;;;3.50;1.40;;;17.80;99.90;;;;;;5049366;28;20021;-49
2021/09/13 12:07:37;;;;;;;5.53;1.10;;;17.80;99.90;;;;;;5049760;28;20683;-48
2021/09/13 12:10:03;;;;;;;3.00;0.98;;;17.80;99.90;;;;;;5049379;28;20263;-47
2021/09/13 12:12:30;;;;;;;3.55;1.02;;;17.80;99.90;;;;;;5049505;28;20120;-49
2021/09/13 12:15:04;;;;;;;3.25;1.52;;;17.80;99.90;;;;;;5049043;28;20033;-49
2021/09/13 12:17:39;;;;;;;1.50;1.35;;;17.70;99.90;;;;;;5048748;28;20025;-52
2021/09/13 12:20:30;;;;;;;3.72;1.23;;;17.70;99.90;;;;;;5031665;28;20429;-49
2021/09/13 12:23:02;;;;;;;2.80;0.93;;;17.70;99.90;;;;;;5043313;28;20021;-51
2021/09/13 12:25:30;;;;;;;5.50;1.10;;;17.80;99.90;;;;;;5039835;28;20033;-49
2021/09/13 12:28:01;;;;;;;7.28;1.30;;;17.70;99.90;;;;;;5049833;28;20017;-52
2021/09/13 12:30:29;;;;;;;7.03;1.92;;;17.70;99.90;;;;;;5037774;28;20033;-50
2021/09/13 12:33:05;;;;;;;4.72;1.40;;;17.80;99.90;;;;;;5049255;28;20035;-51
2021/09/13 12:35:41;;;;;;;4.72;1.40;;;17.80;99.90;;;;;;5035409;28;20021;-46
2021/09/13 12:38:16;;;;;;;4.72;2.03;;;17.90;99.90;;;;;;5049391;28;20028;-50
2021/09/13 12:40:51;;;;;;;3.95;1.25;;;17.90;99.90;;;;;;5049517;28;20029;-55
2021/09/13 12:43:26;;;;;;;2.30;1.25;;;17.90;99.90;;;;;;5041352;28;20021;-47
2021/09/13 12:46:15;;;;;;;3.53;1.20;;;17.70;99.90;;;;;;5049098;28;20017;-47
2021/09/13 12:48:45;;;;;;;2.10;1.02;;;17.60;99.90;;;;;;5022205;28;20021;-50
2021/09/13 12:51:16;;;;;;;5.57;1.75;;;17.70;99.90;;;;;;5049357;28;20546;-52
2021/09/13 12:53:53;;;;;;;1.35;0.88;;;17.80;99.90;;;;;;5049419;28;20112;-47
2021/09/13 12:56:19;;;;;;;3.92;1.58;;;17.80;99.90;;;;;;5049227;28;20023;-48